createdAt,value
2022-10-04T00:00:34.036Z,34.866667
2022-10-04T00:05:16.549Z,36.000000
2022-10-04T00:10:19.089Z,36.133333
2022-10-04T00:15:21.823Z,36.933333
2022-10-04T00:20:24.384Z,38.642857
2022-10-04T00:25:27.100Z,39.266667
2022-10-04T00:30:29.489Z,39.466667
2022-10-04T00:35:32.173Z,39.733333
2022-10-04T00:40:34.653Z,40.133333
2022-10-04T00:45:16.920Z,40.133333
2022-10-04T00:50:19.813Z,41.733333
2022-10-04T00:55:22.246Z,43.142857
2022-10-04T01:00:25.306Z,43.933333
2022-10-04T01:05:27.963Z,46.000000
2022-10-04T01:10:30.435Z,46.266667
2022-10-04T01:15:33.744Z,45.866667
2022-10-04T01:20:16.142Z,46.000000
2022-10-04T01:25:18.659Z,46.266667
2022-10-04T01:30:20.973Z,46.266667
2022-10-04T01:35:23.654Z,45.214286
2022-10-04T01:40:25.929Z,42.400000
2022-10-04T01:45:28.572Z,43.066667
2022-10-04T01:50:31.245Z,44.400000
2022-10-04T01:55:34.095Z,46.200000
2022-10-04T02:00:16.861Z,47.600000
2022-10-04T02:05:19.875Z,47.933333
2022-10-04T02:10:22.725Z,47.000000
2022-10-04T02:15:25.323Z,47.800000
2022-10-04T02:20:28.797Z,50.000000
2022-10-04T02:25:31.394Z,51.066667
2022-10-04T02:30:34.401Z,51.866667
2022-10-04T02:35:17.717Z,51.333333
2022-10-04T02:40:21.172Z,51.266667
2022-10-04T02:45:23.737Z,52.142857
2022-10-04T02:50:26.538Z,52.600000
2022-10-04T02:55:29.677Z,53.333333
2022-10-04T03:00:33.564Z,51.200000
2022-10-04T03:05:16.670Z,49.933333
2022-10-04T03:10:20.250Z,51.266667
2022-10-04T03:15:23.355Z,51.642857
2022-10-04T03:20:26.471Z,51.533333
2022-10-04T03:25:29.276Z,51.000000
2022-10-04T03:30:32.878Z,51.466667
2022-10-04T03:35:35.888Z,52.333333
2022-10-04T03:40:19.337Z,51.866667
2022-10-04T03:45:23.424Z,51.000000
2022-10-04T03:50:27.005Z,50.133333
2022-10-04T03:55:31.438Z,54.400000
2022-10-04T04:00:16.384Z,55.933333
2022-10-04T04:05:19.744Z,57.400000
2022-10-04T04:10:23.894Z,57.571429
2022-10-04T04:15:28.066Z,58.133333
2022-10-04T04:20:31.661Z,57.400000
2022-10-04T04:25:34.571Z,58.133333
2022-10-04T04:30:17.314Z,57.066667
2022-10-04T04:35:20.347Z,57.333333
2022-10-04T04:40:23.361Z,58.142857
2022-10-04T04:45:26.814Z,61.933333
2022-10-04T04:50:29.249Z,62.400000
2022-10-04T04:55:49.965Z,62.933333
2022-10-04T05:00:34.561Z,62.933333
2022-10-04T05:05:17.257Z,64.933333
2022-10-04T05:10:20.565Z,64.666667
2022-10-04T05:15:23.918Z,65.000000
2022-10-04T05:20:27.274Z,65.800000
2022-10-04T05:25:30.063Z,66.000000
2022-10-04T05:30:32.810Z,65.000000
2022-10-04T05:35:15.988Z,65.066667
2022-10-04T05:40:17.480Z,63.666667
2022-10-04T05:45:20.217Z,63.200000
2022-10-04T05:50:22.577Z,62.785714
2022-10-04T05:56:02.179Z,60.133333
2022-10-04T06:00:27.597Z,60.666667
2022-10-04T06:05:30.485Z,60.933333
2022-10-04T07:30:17.788Z,70.400000
2022-10-04T07:35:28.490Z,71.071429
2022-10-04T07:40:35.917Z,72.600000
2022-10-04T07:45:16.478Z,73.266667
2022-10-04T07:50:18.906Z,73.000000
2022-10-04T07:55:21.104Z,73.933333
2022-10-04T08:00:23.813Z,74.000000
2022-10-04T08:05:26.454Z,75.000000
2022-10-04T08:10:28.952Z,75.933333
2022-10-04T08:15:31.745Z,76.000000
2022-10-04T08:20:34.541Z,76.066667
2022-10-04T08:25:16.987Z,77.533333
2022-10-04T08:30:19.779Z,78.400000
2022-10-04T08:35:22.182Z,79.642857
2022-10-04T08:40:24.780Z,80.400000
2022-10-04T08:45:27.473Z,81.000000
2022-10-04T08:50:30.416Z,81.133333
2022-10-04T08:55:32.641Z,81.333333
2022-10-04T09:00:34.935Z,81.466667
2022-10-04T09:10:25.054Z,83.000000
2022-10-04T09:15:25.752Z,83.866667
2022-10-04T09:20:39.797Z,84.400000
2022-10-04T09:25:31.183Z,85.000000
2022-10-04T09:30:34.241Z,85.000000
2022-10-04T09:35:19.108Z,83.400000
2022-10-04T09:40:20.157Z,82.200000
2022-10-04T09:45:22.371Z,81.857143
2022-10-04T09:50:26.685Z,81.000000
2022-10-04T09:55:27.687Z,81.933333
2022-10-04T10:00:30.014Z,80.866667
2022-10-04T10:05:32.581Z,79.600000
2022-10-04T10:10:35.893Z,79.000000
2022-10-04T10:15:17.839Z,79.000000
2022-10-04T10:20:21.838Z,79.400000
2022-10-04T10:25:23.192Z,80.000000
2022-10-04T10:30:26.304Z,80.933333
2022-10-04T10:35:29.531Z,81.000000
2022-10-04T10:40:32.342Z,81.000000
2022-10-04T10:45:35.220Z,81.733333
2022-10-04T10:50:17.388Z,82.000000
2022-10-04T10:55:19.989Z,82.000000
2022-10-04T11:00:22.348Z,82.357143
2022-10-04T11:05:24.951Z,83.000000
2022-10-04T11:10:27.804Z,83.200000
2022-10-04T11:15:30.637Z,83.600000
2022-10-04T11:20:33.887Z,83.133333
2022-10-04T11:25:35.876Z,83.066667
2022-10-04T11:30:18.483Z,84.000000
2022-10-04T11:35:21.300Z,83.133333
2022-10-04T11:40:24.774Z,82.857143
2022-10-04T11:45:27.151Z,82.000000
2022-10-04T11:50:29.477Z,83.000000
2022-10-04T11:55:33.337Z,83.733333
2022-10-04T12:00:35.948Z,84.666667
2022-10-04T12:05:19.067Z,85.133333
2022-10-04T12:10:21.591Z,86.000000
2022-10-04T12:15:24.298Z,86.285714
2022-10-04T12:20:27.114Z,87.000000
2022-10-04T12:25:29.701Z,87.533333
2022-10-04T12:30:33.386Z,88.000000
2022-10-04T12:35:35.783Z,88.000000
2022-10-04T12:40:17.856Z,88.000000
2022-10-04T12:45:20.451Z,88.000000
2022-10-04T12:50:24.315Z,88.428571
2022-10-04T12:55:27.014Z,88.466667
2022-10-04T13:00:29.915Z,88.000000
2022-10-04T13:05:32.842Z,88.533333
2022-10-04T13:10:36.124Z,88.000000
2022-10-04T13:15:18.265Z,88.733333
2022-10-04T13:20:20.881Z,88.600000
2022-10-04T13:25:24.292Z,89.000000
2022-10-04T13:30:27.493Z,89.733333
2022-10-04T13:35:36.551Z,90.000000
2022-10-04T13:40:33.892Z,90.000000
2022-10-04T13:45:16.151Z,90.600000
2022-10-04T13:50:19.537Z,90.400000
2022-10-04T13:55:21.563Z,90.333333
2022-10-04T14:00:24.235Z,89.214286
2022-10-04T14:05:26.987Z,88.400000
2022-10-04T14:10:30.664Z,87.400000
2022-10-04T14:15:31.926Z,86.866667
2022-10-04T14:20:35.520Z,84.866667
2022-10-04T14:25:21.114Z,82.533333
2022-10-04T14:30:20.698Z,84.200000
2022-10-04T14:35:24.482Z,85.857143
2022-10-04T14:40:25.816Z,85.466667
2022-10-04T14:45:28.779Z,84.266667
2022-10-04T14:50:31.294Z,82.800000
2022-10-04T14:55:33.727Z,82.000000
2022-10-04T15:00:17.411Z,81.266667
2022-10-04T15:05:20.758Z,79.466667
2022-10-04T15:10:22.885Z,74.928571
2022-10-04T15:15:26.889Z,68.466667
2022-10-04T15:20:28.603Z,66.200000
2022-10-04T15:25:32.118Z,64.266667
2022-10-04T15:30:33.942Z,62.533333
2022-10-04T15:35:17.657Z,63.800000
2022-10-04T15:40:19.621Z,62.266667
2022-10-04T15:45:24.717Z,64.000000
2022-10-04T15:50:25.957Z,64.266667
2022-10-04T15:55:29.337Z,62.533333
2022-10-04T16:00:33.867Z,62.466667
2022-10-04T16:05:35.218Z,62.466667
2022-10-04T16:10:18.509Z,62.800000
2022-10-04T16:15:20.196Z,63.533333
2022-10-04T16:20:22.575Z,63.000000
2022-10-04T16:25:25.024Z,62.133333
2022-10-04T16:30:28.380Z,58.466667
2022-10-04T16:35:29.831Z,57.066667
2022-10-04T16:40:32.264Z,55.666667
2022-10-04T16:45:34.398Z,56.400000
2022-10-04T16:50:16.531Z,56.666667
2022-10-04T16:55:18.823Z,56.333333
2022-10-04T17:00:22.144Z,55.600000
2022-10-04T17:05:25.149Z,55.714286
2022-10-04T17:10:28.362Z,54.533333
2022-10-04T17:15:29.946Z,54.466667
2022-10-04T17:20:32.013Z,53.800000
2022-10-04T17:25:34.548Z,53.466667
2022-10-04T17:30:17.331Z,52.600000
2022-10-04T17:35:20.242Z,51.333333
2022-10-04T17:40:22.945Z,48.500000
2022-10-04T17:45:25.825Z,49.800000
2022-10-04T17:50:29.212Z,48.200000
2022-10-04T17:55:31.791Z,48.066667
2022-10-04T18:00:34.423Z,48.133333
2022-10-04T18:05:18.496Z,46.866667
2022-10-04T18:10:24.549Z,46.733333
2022-10-04T18:15:24.343Z,46.428571
2022-10-04T18:20:29.689Z,46.266667
2022-10-04T18:25:31.292Z,46.133333
2022-10-04T18:30:33.651Z,44.800000
2022-10-04T18:35:17.682Z,44.933333
2022-10-04T18:40:19.694Z,43.333333
2022-10-04T18:45:24.632Z,44.500000
2022-10-04T18:50:27.827Z,44.000000
2022-10-04T18:55:31.303Z,42.866667
2022-10-04T19:00:34.845Z,43.066667
2022-10-04T19:05:16.049Z,44.333333
2022-10-04T19:10:18.399Z,44.866667
2022-10-04T19:15:21.461Z,43.800000
2022-10-04T19:20:27.506Z,43.428571
2022-10-04T19:25:23.465Z,42.266667
2022-10-04T19:30:33.395Z,41.400000
2022-10-04T19:35:16.112Z,39.333333
2022-10-04T19:40:19.279Z,38.866667
2022-10-04T19:45:22.603Z,39.000000
2022-10-04T19:50:26.011Z,40.800000
2022-10-04T19:55:28.822Z,41.066667
2022-10-04T20:00:31.134Z,38.933333
2022-10-04T20:05:34.553Z,37.600000
2022-10-04T20:10:16.601Z,38.000000
2022-10-04T20:15:22.698Z,39.800000
2022-10-04T20:20:22.771Z,40.071429
2022-10-04T20:25:26.655Z,40.333333
2022-10-04T20:30:29.056Z,39.200000
2022-10-04T20:35:33.761Z,39.133333
2022-10-04T20:40:16.133Z,37.866667
2022-10-04T20:45:20.136Z,37.266667
2022-10-04T20:50:24.007Z,36.214286
2022-10-04T20:55:27.853Z,36.400000
2022-10-04T21:00:31.905Z,35.666667
2022-10-04T21:05:33.799Z,34.066667
2022-10-04T21:10:17.154Z,33.733333
2022-10-04T21:15:20.132Z,33.600000
2022-10-04T21:20:23.712Z,33.142857
2022-10-04T21:25:26.934Z,33.600000
2022-10-04T21:30:30.899Z,33.666667
2022-10-04T21:35:34.270Z,33.933333
2022-10-04T21:40:37.128Z,32.600000
2022-10-04T21:45:18.691Z,33.400000
2022-10-04T21:50:22.148Z,33.466667
2022-10-04T21:55:25.135Z,31.571429
2022-10-04T22:00:27.390Z,31.733333
2022-10-04T22:05:30.176Z,30.266667
2022-10-04T22:10:34.579Z,29.133333
2022-10-04T22:15:16.164Z,30.466667
2022-10-04T22:20:19.412Z,29.600000
2022-10-04T22:25:22.324Z,31.071429
2022-10-04T22:30:25.432Z,31.800000
2022-10-04T22:35:28.820Z,31.333333
2022-10-04T22:40:31.456Z,33.000000
2022-10-04T22:45:34.810Z,31.800000
2022-10-04T22:50:17.797Z,31.666667
2022-10-04T22:55:20.387Z,32.133333
2022-10-04T23:00:23.586Z,31.571429
2022-10-04T23:05:26.909Z,31.866667
2022-10-04T23:10:28.575Z,32.533333
2022-10-04T23:15:31.669Z,31.866667
2022-10-04T23:20:34.971Z,32.466667
2022-10-04T23:25:19.390Z,32.533333
2022-10-04T23:30:21.007Z,32.400000
2022-10-04T23:35:24.442Z,32.000000
2022-10-04T23:40:27.752Z,32.000000
2022-10-04T23:45:31.121Z,31.600000
2022-10-04T23:50:33.655Z,31.066667
2022-10-04T23:55:16.328Z,31.200000
